sensor_id;sensor_type;location;lat;lon;timestamp;pressure;altitude;pressure_sealevel;temperature;humidity
27729;BME280;15126;42.186;24.340;2023-04-06T00:00:11;99129.25;;;4.06;66.61
27729;BME280;15126;42.186;24.340;2023-04-06T00:02:38;99130.03;;;4.03;65.75
27729;BME280;15126;42.186;24.340;2023-04-06T00:05:05;99124.50;;;4.07;66.56
27729;BME280;15126;42.186;24.340;2023-04-06T00:07:33;99117.41;;;4.06;65.89
27729;BME280;15126;42.186;24.340;2023-04-06T00:10:04;99121.34;;;4.08;67.80
27729;BME280;15126;42.186;24.340;2023-04-06T00:12:31;99122.53;;;4.07;66.93
27729;BME280;15126;42.186;24.340;2023-04-06T00:14:59;99120.59;;;4.15;65.93
27729;BME280;15126;42.186;24.340;2023-04-06T00:17:27;99114.25;;;4.21;65.40
27729;BME280;15126;42.186;24.340;2023-04-06T00:19:53;99107.56;;;4.19;66.93
27729;BME280;15126;42.186;24.340;2023-04-06T00:22:20;99102.84;;;4.19;65.06
27729;BME280;15126;42.186;24.340;2023-04-06T00:24:47;99099.28;;;4.22;66.19
27729;BME280;15126;42.186;24.340;2023-04-06T00:27:14;99097.34;;;4.27;66.62
27729;BME280;15126;42.186;24.340;2023-04-06T00:29:41;99090.63;;;4.31;66.46
27729;BME280;15126;42.186;24.340;2023-04-06T00:32:10;99096.16;;;4.35;66.58
27729;BME280;15126;42.186;24.340;2023-04-06T00:34:37;99095.34;;;4.27;65.82
27729;BME280;15126;42.186;24.340;2023-04-06T00:37:03;99089.06;;;4.34;66.82
27729;BME280;15126;42.186;24.340;2023-04-06T00:39:30;99089.06;;;4.27;66.47
27729;BME280;15126;42.186;24.340;2023-04-06T00:41:57;99082.75;;;4.26;66.78
27729;BME280;15126;42.186;24.340;2023-04-06T00:44:25;99085.09;;;4.28;66.43
27729;BME280;15126;42.186;24.340;2023-04-06T00:46:53;99074.88;;;4.21;65.88
27729;BME280;15126;42.186;24.340;2023-04-06T00:49:21;99087.06;;;4.20;66.63
27729;BME280;15126;42.186;24.340;2023-04-06T00:51:48;99080.38;;;4.14;67.50
27729;BME280;15126;42.186;24.340;2023-04-06T00:54:15;99080.38;;;4.14;67.26
27729;BME280;15126;42.186;24.340;2023-04-06T00:56:42;99073.28;;;4.09;67.89
27729;BME280;15126;42.186;24.340;2023-04-06T00:59:10;99053.94;;;3.92;67.78
27729;BME280;15126;42.186;24.340;2023-04-06T01:01:37;99067.34;;;3.97;69.08
27729;BME280;15126;42.186;24.340;2023-04-06T01:04:04;99073.66;;;4.01;68.69
27729;BME280;15126;42.186;24.340;2023-04-06T01:06:33;99071.69;;;4.01;67.49
27729;BME280;15126;42.186;24.340;2023-04-06T01:09:00;99059.06;;;3.97;67.52
27729;BME280;15126;42.186;24.340;2023-04-06T01:11:27;99065.38;;;3.94;68.79
27729;BME280;15126;42.186;24.340;2023-04-06T01:13:54;99064.56;;;3.90;68.46
27729;BME280;15126;42.186;24.340;2023-04-06T01:16:21;99064.19;;;3.88;68.94
27729;BME280;15126;42.186;24.340;2023-04-06T01:18:48;99060.63;;;3.80;67.70
27729;BME280;15126;42.186;24.340;2023-04-06T01:21:15;99049.56;;;3.70;68.84
27729;BME280;15126;42.186;24.340;2023-04-06T01:23:44;99040.09;;;3.60;69.23
27729;BME280;15126;42.186;24.340;2023-04-06T01:26:12;99060.25;;;3.75;69.00
27729;BME280;15126;42.186;24.340;2023-04-06T01:28:39;99057.88;;;3.77;68.51
27729;BME280;15126;42.186;24.340;2023-04-06T01:31:07;99025.94;;;3.65;67.86
27729;BME280;15126;42.186;24.340;2023-04-06T01:33:34;99055.50;;;3.72;68.86
27729;BME280;15126;42.186;24.340;2023-04-06T01:36:04;99041.72;;;3.79;68.11
27729;BME280;15126;42.186;24.340;2023-04-06T01:38:31;99038.97;;;3.72;69.67
27729;BME280;15126;42.186;24.340;2023-04-06T01:40:59;99038.94;;;3.61;69.19
27729;BME280;15126;42.186;24.340;2023-04-06T01:43:26;99042.47;;;3.58;70.17
27729;BME280;15126;42.186;24.340;2023-04-06T01:45:53;99032.59;;;3.53;69.14
27729;BME280;15126;42.186;24.340;2023-04-06T01:48:20;99025.13;;;3.47;70.05
27729;BME280;15126;42.186;24.340;2023-04-06T01:50:47;99030.59;;;3.40;69.76
27729;BME280;15126;42.186;24.340;2023-04-06T01:53:14;99028.66;;;3.37;70.41
27729;BME280;15126;42.186;24.340;2023-04-06T01:55:42;99027.44;;;3.34;70.04
27729;BME280;15126;42.186;24.340;2023-04-06T01:58:10;99028.19;;;3.24;71.86
27729;BME280;15126;42.186;24.340;2023-04-06T02:00:37;99017.16;;;3.21;70.46
27729;BME280;15126;42.186;24.340;2023-04-06T02:03:04;99023.09;;;3.23;71.20
27729;BME280;15126;42.186;24.340;2023-04-06T02:05:32;99019.13;;;3.24;71.02
27729;BME280;15126;42.186;24.340;2023-04-06T02:08:03;99021.91;;;3.27;70.39
27729;BME280;15126;42.186;24.340;2023-04-06T02:10:30;99019.56;;;3.33;70.82
27729;BME280;15126;42.186;24.340;2023-04-06T02:12:57;99012.47;;;3.28;72.06
27729;BME280;15126;42.186;24.340;2023-04-06T02:15:25;99024.28;;;3.25;70.95
27729;BME280;15126;42.186;24.340;2023-04-06T02:17:53;99015.59;;;3.27;70.85
27729;BME280;15126;42.186;24.340;2023-04-06T02:20:20;99018.34;;;3.16;70.31
27729;BME280;15126;42.186;24.340;2023-04-06T02:22:47;99015.56;;;3.16;70.28
27729;BME280;15126;42.186;24.340;2023-04-06T02:25:14;99014.81;;;3.19;70.74
27729;BME280;15126;42.186;24.340;2023-04-06T02:27:41;99011.63;;;3.10;70.76
27729;BME280;15126;42.186;24.340;2023-04-06T02:30:08;99012.81;;;3.13;72.02
27729;BME280;15126;42.186;24.340;2023-04-06T02:32:37;99013.19;;;3.08;71.77
27729;BME280;15126;42.186;24.340;2023-04-06T02:35:04;99015.94;;;3.04;72.00
27729;BME280;15126;42.186;24.340;2023-04-06T02:37:31;99017.53;;;3.09;71.97
27729;BME280;15126;42.186;24.340;2023-04-06T02:39:58;99030.13;;;3.10;72.30
27729;BME280;15126;42.186;24.340;2023-04-06T02:42:25;99025.75;;;3.05;71.24
27729;BME280;15126;42.186;24.340;2023-04-06T02:44:52;99033.66;;;3.10;71.60
27729;BME280;15126;42.186;24.340;2023-04-06T02:47:19;99013.19;;;3.04;70.92
27729;BME280;15126;42.186;24.340;2023-04-06T02:49:47;99021.00;;;2.95;71.57
27729;BME280;15126;42.186;24.340;2023-04-06T02:52:14;99024.53;;;2.92;71.72
27729;BME280;15126;42.186;24.340;2023-04-06T02:54:43;99025.69;;;2.91;73.29
27729;BME280;15126;42.186;24.340;2023-04-06T02:57:10;99028.88;;;2.93;73.07
27729;BME280;15126;42.186;24.340;2023-04-06T02:59:37;99021.78;;;2.92;72.39
27729;BME280;15126;42.186;24.340;2023-04-06T03:02:04;99008.38;;;2.80;72.20
27729;BME280;15126;42.186;24.340;2023-04-06T03:04:30;99026.13;;;2.93;73.43
27729;BME280;15126;42.186;24.340;2023-04-06T03:06:59;99028.09;;;2.96;73.23
27729;BME280;15126;42.186;24.340;2023-04-06T03:09:26;99026.13;;;2.96;73.06
27729;BME280;15126;42.186;24.340;2023-04-06T03:11:53;99031.22;;;2.94;72.68
27729;BME280;15126;42.186;24.340;2023-04-06T03:14:20;99031.22;;;2.87;74.10
27729;BME280;15126;42.186;24.340;2023-04-06T03:16:48;99026.47;;;2.84;73.29
27729;BME280;15126;42.186;24.340;2023-04-06T03:19:14;99025.28;;;2.82;74.47
27729;BME280;15126;42.186;24.340;2023-04-06T03:21:42;99028.47;;;2.87;74.17
27729;BME280;15126;42.186;24.340;2023-04-06T03:24:10;99026.91;;;2.90;73.85
27729;BME280;15126;42.186;24.340;2023-04-06T03:26:38;99025.69;;;2.91;74.90
27729;BME280;15126;42.186;24.340;2023-04-06T03:29:05;99026.13;;;2.93;74.62
27729;BME280;15126;42.186;24.340;2023-04-06T03:31:32;99022.19;;;2.94;75.27
27729;BME280;15126;42.186;24.340;2023-04-06T03:33:59;99022.59;;;2.99;72.98
27729;BME280;15126;42.186;24.340;2023-04-06T03:36:26;99024.19;;;3.04;72.79
27729;BME280;15126;42.186;24.340;2023-04-06T03:38:53;99028.13;;;3.10;72.97
27729;BME280;15126;42.186;24.340;2023-04-06T03:41:21;99026.59;;;3.09;73.03
27729;BME280;15126;42.186;24.340;2023-04-06T03:43:48;99026.97;;;3.11;73.30
27729;BME280;15126;42.186;24.340;2023-04-06T03:46:15;99035.25;;;3.11;72.58
27729;BME280;15126;42.186;24.340;2023-04-06T03:48:42;99033.69;;;3.17;71.96
27729;BME280;15126;42.186;24.340;2023-04-06T03:51:09;99022.63;;;3.10;72.79
27729;BME280;15126;42.186;24.340;2023-04-06T03:53:36;99027.00;;;3.15;72.19
27729;BME280;15126;42.186;24.340;2023-04-06T03:56:04;99036.06;;;3.15;71.84
27729;BME280;15126;42.186;24.340;2023-04-06T03:58:32;99038.41;;;3.17;71.61
27729;BME280;15126;42.186;24.340;2023-04-06T04:00:59;99034.47;;;3.14;72.67
27729;BME280;15126;42.186;24.340;2023-04-06T04:03:26;99041.53;;;3.12;72.68
27729;BME280;15126;42.186;24.340;2023-04-06T04:05:53;99040.38;;;3.16;72.80
27729;BME280;15126;42.186;24.340;2023-04-06T04:08:21;99039.13;;;3.03;73.52
27729;BME280;15126;42.186;24.340;2023-04-06T04:10:48;99039.97;;;3.07;71.98
27729;BME280;15126;42.186;24.340;2023-04-06T04:13:15;99047.06;;;3.12;72.65
27729;BME280;15126;42.186;24.340;2023-04-06T04:15:44;99044.66;;;3.10;72.97
27729;BME280;15126;42.186;24.340;2023-04-06T04:18:12;99049.41;;;3.13;73.33
27729;BME280;15126;42.186;24.340;2023-04-06T04:20:39;99046.25;;;3.11;72.42
27729;BME280;15126;42.186;24.340;2023-04-06T04:23:06;99044.69;;;3.14;72.89
27729;BME280;15126;42.186;24.340;2023-04-06T04:25:33;99042.31;;;3.16;73.88
27729;BME280;15126;42.186;24.340;2023-04-06T04:28:00;99054.56;;;3.22;73.44
27729;BME280;15126;42.186;24.340;2023-04-06T04:30:27;99053.81;;;3.28;72.05
27729;BME280;15126;42.186;24.340;2023-04-06T04:32:55;99045.16;;;3.30;71.83
27729;BME280;15126;42.186;24.340;2023-04-06T04:35:22;99053.44;;;3.40;72.82
27729;BME280;15126;42.186;24.340;2023-04-06T04:37:49;99051.09;;;3.42;72.78
27729;BME280;15126;42.186;24.340;2023-04-06T04:40:16;99051.13;;;3.53;71.84
27729;BME280;15126;42.186;24.340;2023-04-06T04:42:43;99047.22;;;3.61;72.68
27729;BME280;15126;42.186;24.340;2023-04-06T04:45:10;99043.66;;;3.60;73.10
27729;BME280;15126;42.186;24.340;2023-04-06T04:47:37;99047.97;;;3.54;72.33
27729;BME280;15126;42.186;24.340;2023-04-06T04:50:06;99044.03;;;3.52;71.40
27729;BME280;15126;42.186;24.340;2023-04-06T04:52:33;99046.81;;;3.63;70.40
27729;BME280;15126;42.186;24.340;2023-04-06T04:55:00;99054.69;;;3.60;69.67
27729;BME280;15126;42.186;24.340;2023-04-06T04:57:28;99055.88;;;3.70;71.75
27729;BME280;15126;42.186;24.340;2023-04-06T04:59:56;99056.69;;;3.81;70.93
27729;BME280;15126;42.186;24.340;2023-04-06T05:02:23;99046.44;;;3.75;70.77
27729;BME280;15126;42.186;24.340;2023-04-06T05:04:50;99027.91;;;3.68;70.54
27729;BME280;15126;42.186;24.340;2023-04-06T05:07:18;99039.34;;;3.70;69.19
27729;BME280;15126;42.186;24.340;2023-04-06T05:09:46;99035.03;;;3.80;69.45
27729;BME280;15126;42.186;24.340;2023-04-06T05:12:13;99042.53;;;3.93;70.17
27729;BME280;15126;42.186;24.340;2023-04-06T05:14:40;99037.00;;;3.97;69.20
27729;BME280;15126;42.186;24.340;2023-04-06T05:17:07;99048.03;;;4.00;68.82
27729;BME280;15126;42.186;24.340;2023-04-06T05:19:34;99041.72;;;4.10;70.26
27729;BME280;15126;42.186;24.340;2023-04-06T05:22:00;99050.81;;;4.18;68.16
27729;BME280;15126;42.186;24.340;2023-04-06T05:24:29;99034.66;;;4.13;67.56
27729;BME280;15126;42.186;24.340;2023-04-06T05:26:56;99053.19;;;4.23;68.08
27729;BME280;15126;42.186;24.340;2023-04-06T05:29:23;99043.31;;;4.22;66.86
27729;BME280;15126;42.186;24.340;2023-04-06T05:31:51;99043.28;;;4.43;67.66
27729;BME280;15126;42.186;24.340;2023-04-06T05:34:17;99042.09;;;4.55;65.65
27729;BME280;15126;42.186;24.340;2023-04-06T05:36:45;99027.47;;;4.75;65.92
27729;BME280;15126;42.186;24.340;2023-04-06T05:39:12;99035.28;;;5.02;65.42
27729;BME280;15126;42.186;24.340;2023-04-06T05:41:40;99030.84;;;5.22;65.47
27729;BME280;15126;42.186;24.340;2023-04-06T05:44:07;99028.00;;;5.36;63.75
27729;BME280;15126;42.186;24.340;2023-04-06T05:46:34;99016.09;;;5.50;63.03
27729;BME280;15126;42.186;24.340;2023-04-06T05:49:01;99017.91;;;5.74;62.51
27729;BME280;15126;42.186;24.340;2023-04-06T05:51:28;99017.06;;;5.84;62.17
27729;BME280;15126;42.186;24.340;2023-04-06T05:53:55;99015.75;;;6.03;61.92
27729;BME280;15126;42.186;24.340;2023-04-06T05:56:23;99001.38;;;6.22;59.44
27729;BME280;15126;42.186;24.340;2023-04-06T05:58:52;99007.88;;;6.45;60.08
27729;BME280;15126;42.186;24.340;2023-04-06T06:01:19;99007.28;;;6.65;60.89
27729;BME280;15126;42.186;24.340;2023-04-06T06:03:46;99007.50;;;6.81;60.48
27729;BME280;15126;42.186;24.340;2023-04-06T06:06:13;99015.56;;;7.02;57.60
27729;BME280;15126;42.186;24.340;2023-04-06T06:08:40;99001.56;;;7.12;57.78
27729;BME280;15126;42.186;24.340;2023-04-06T06:11:07;98997.97;;;7.15;56.20
27729;BME280;15126;42.186;24.340;2023-04-06T06:13:34;98998.25;;;7.25;58.33
27729;BME280;15126;42.186;24.340;2023-04-06T06:16:03;98995.97;;;7.46;58.04
27729;BME280;15126;42.186;24.340;2023-04-06T06:18:30;98983.06;;;7.63;57.40
27729;BME280;15126;42.186;24.340;2023-04-06T06:20:57;98990.06;;;7.71;57.30
27729;BME280;15126;42.186;24.340;2023-04-06T06:23:24;98986.13;;;7.95;57.03
27729;BME280;15126;42.186;24.340;2023-04-06T06:25:51;98987.44;;;8.10;56.62
27729;BME280;15126;42.186;24.340;2023-04-06T06:28:19;98987.28;;;8.21;56.36
27729;BME280;15126;42.186;24.340;2023-04-06T06:30:46;98989.75;;;8.15;56.34
27729;BME280;15126;42.186;24.340;2023-04-06T06:33:14;98976.88;;;8.28;56.08
27729;BME280;15126;42.186;24.340;2023-04-06T06:35:41;98977.47;;;8.40;55.30
27729;BME280;15126;42.186;24.340;2023-04-06T06:38:08;98980.47;;;8.49;55.73
27729;BME280;15126;42.186;24.340;2023-04-06T06:40:35;98976.06;;;8.51;55.14
27729;BME280;15126;42.186;24.340;2023-04-06T06:43:02;98978.00;;;8.74;55.94
27729;BME280;15126;42.186;24.340;2023-04-06T06:45:29;98972.19;;;8.88;55.28
27729;BME280;15126;42.186;24.340;2023-04-06T06:47:56;98975.53;;;8.99;53.87
27729;BME280;15126;42.186;24.340;2023-04-06T06:50:24;98971.69;;;8.93;54.53
27729;BME280;15126;42.186;24.340;2023-04-06T06:52:51;98975.03;;;9.04;55.38
27729;BME280;15126;42.186;24.340;2023-04-06T06:55:18;98978.50;;;9.08;54.65
27729;BME280;15126;42.186;24.340;2023-04-06T06:57:45;98975.31;;;9.10;52.47
27729;BME280;15126;42.186;24.340;2023-04-06T07:00:13;98973.88;;;9.21;52.05
27729;BME280;15126;42.186;24.340;2023-04-06T07:02:40;98977.34;;;9.45;53.91
27729;BME280;15126;42.186;24.340;2023-04-06T07:05:07;98973.88;;;9.57;53.90
27729;BME280;15126;42.186;24.340;2023-04-06T07:07:36;98961.63;;;9.71;52.05
27729;BME280;15126;42.186;24.340;2023-04-06T07:10:03;98956.16;;;9.67;50.76
27729;BME280;15126;42.186;24.340;2023-04-06T07:12:30;98963.03;;;9.79;53.84
27729;BME280;15126;42.186;24.340;2023-04-06T07:14:57;98960.44;;;9.88;51.69
27729;BME280;15126;42.186;24.340;2023-04-06T07:17:24;98959.22;;;9.89;52.82
27729;BME280;15126;42.186;24.340;2023-04-06T07:19:51;98967.19;;;10.03;52.49
27729;BME280;15126;42.186;24.340;2023-04-06T07:22:18;98957.31;;;10.18;49.67
27729;BME280;15126;42.186;24.340;2023-04-06T07:24:47;98948.97;;;10.18;51.48
27729;BME280;15126;42.186;24.340;2023-04-06T07:27:14;98950.31;;;10.42;50.35
27729;BME280;15126;42.186;24.340;2023-04-06T07:29:42;98950.94;;;10.34;50.24
27729;BME280;15126;42.186;24.340;2023-04-06T07:32:08;98956.34;;;10.41;51.04
27729;BME280;15126;42.186;24.340;2023-04-06T07:34:35;98956.56;;;10.46;51.54
27729;BME280;15126;42.186;24.340;2023-04-06T07:37:02;98944.16;;;10.35;49.92
27729;BME280;15126;42.186;24.340;2023-04-06T07:39:29;98939.09;;;10.46;52.16
27729;BME280;15126;42.186;24.340;2023-04-06T07:41:58;98947.88;;;10.44;48.65
27729;BME280;15126;42.186;24.340;2023-04-06T07:44:27;98945.63;;;10.39;51.25
27729;BME280;15126;42.186;24.340;2023-04-06T07:46:54;98934.66;;;10.32;47.10
27729;BME280;15126;42.186;24.340;2023-04-06T07:49:21;98941.34;;;10.51;50.25
27729;BME280;15126;42.186;24.340;2023-04-06T07:51:48;98944.88;;;10.67;50.99
27729;BME280;15126;42.186;24.340;2023-04-06T07:54:15;98936.19;;;10.78;52.26
27729;BME280;15126;42.186;24.340;2023-04-06T07:56:42;98936.47;;;10.96;48.63
27729;BME280;15126;42.186;24.340;2023-04-06T07:59:10;98931.91;;;11.02;50.81
27729;BME280;15126;42.186;24.340;2023-04-06T08:01:39;98929.69;;;11.10;48.63
27729;BME280;15126;42.186;24.340;2023-04-06T08:04:06;98942.91;;;11.34;53.31
27729;BME280;15126;42.186;24.340;2023-04-06T08:06:32;98935.41;;;11.44;49.98
27729;BME280;15126;42.186;24.340;2023-04-06T08:09:01;98932.53;;;11.35;45.99
27729;BME280;15126;42.186;24.340;2023-04-06T08:11:29;98937.66;;;11.36;48.05
27729;BME280;15126;42.186;24.340;2023-04-06T08:13:56;98931.97;;;11.40;47.08
27729;BME280;15126;42.186;24.340;2023-04-06T08:16:24;98926.63;;;11.46;49.41
27729;BME280;15126;42.186;24.340;2023-04-06T08:18:52;98927.03;;;11.44;48.03
27729;BME280;15126;42.186;24.340;2023-04-06T08:21:18;98920.13;;;11.49;48.98
27729;BME280;15126;42.186;24.340;2023-04-06T08:23:45;98929.97;;;11.66;49.59
27729;BME280;15126;42.186;24.340;2023-04-06T08:26:12;98921.81;;;11.71;47.20
27729;BME280;15126;42.186;24.340;2023-04-06T08:28:39;98927.94;;;11.66;47.55
27729;BME280;15126;42.186;24.340;2023-04-06T08:31:06;98923.41;;;11.72;46.27
27729;BME280;15126;42.186;24.340;2023-04-06T08:33:35;98919.72;;;11.75;47.89
27729;BME280;15126;42.186;24.340;2023-04-06T08:36:09;98914.56;;;11.86;48.35
27729;BME280;15126;42.186;24.340;2023-04-06T08:38:36;98923.81;;;11.96;48.32
27729;BME280;15126;42.186;24.340;2023-04-06T08:41:07;98909.09;;;11.96;47.52
27729;BME280;15126;42.186;24.340;2023-04-06T08:43:42;98920.00;;;12.03;46.35
27729;BME280;15126;42.186;24.340;2023-04-06T08:46:10;98916.69;;;11.95;47.22
27729;BME280;15126;42.186;24.340;2023-04-06T08:48:40;98921.69;;;12.00;45.48
27729;BME280;15126;42.186;24.340;2023-04-06T08:51:08;98916.84;;;12.13;45.46
27729;BME280;15126;42.186;24.340;2023-04-06T08:53:35;98913.81;;;12.20;48.19
27729;BME280;15126;42.186;24.340;2023-04-06T08:56:03;98895.22;;;12.26;43.54
27729;BME280;15126;42.186;24.340;2023-04-06T08:58:34;98914.38;;;12.28;45.04
27729;BME280;15126;42.186;24.340;2023-04-06T09:01:02;98897.25;;;12.26;47.58
27729;BME280;15126;42.186;24.340;2023-04-06T09:03:34;98893.16;;;12.39;49.27
27729;BME280;15126;42.186;24.340;2023-04-06T09:06:04;98892.84;;;12.37;47.11
27729;BME280;15126;42.186;24.340;2023-04-06T09:08:32;98892.81;;;12.50;46.12
27729;BME280;15126;42.186;24.340;2023-04-06T09:11:00;98883.16;;;12.51;45.54
27729;BME280;15126;42.186;24.340;2023-04-06T09:13:29;98882.78;;;12.62;45.92
27729;BME280;15126;42.186;24.340;2023-04-06T09:16:01;98879.00;;;12.55;44.03
27729;BME280;15126;42.186;24.340;2023-04-06T09:18:29;98875.09;;;12.53;46.25
27729;BME280;15126;42.186;24.340;2023-04-06T09:20:58;98870.25;;;12.66;45.06
27729;BME280;15126;42.186;24.340;2023-04-06T09:23:26;98865.09;;;12.65;47.69
27729;BME280;15126;42.186;24.340;2023-04-06T09:26:05;98874.91;;;12.69;44.88
27729;BME280;15126;42.186;24.340;2023-04-06T09:28:44;98863.41;;;12.67;47.23
27729;BME280;15126;42.186;24.340;2023-04-06T09:31:12;98860.56;;;12.58;44.71
27729;BME280;15126;42.186;24.340;2023-04-06T09:33:41;98859.59;;;12.83;47.86
27729;BME280;15126;42.186;24.340;2023-04-06T09:36:08;98860.75;;;12.85;44.92
27729;BME280;15126;42.186;24.340;2023-04-06T09:38:52;98854.94;;;13.01;44.61
27729;BME280;15126;42.186;24.340;2023-04-06T09:41:24;98854.56;;;12.99;46.75
27729;BME280;15126;42.186;24.340;2023-04-06T09:43:52;98851.88;;;13.08;45.80
27729;BME280;15126;42.186;24.340;2023-04-06T09:46:21;98846.59;;;13.10;45.07
27729;BME280;15126;42.186;24.340;2023-04-06T09:48:49;98847.44;;;12.98;43.07
27729;BME280;15126;42.186;24.340;2023-04-06T09:51:18;98848.94;;;12.90;45.14
27729;BME280;15126;42.186;24.340;2023-04-06T09:53:52;98845.75;;;13.01;42.49
27729;BME280;15126;42.186;24.340;2023-04-06T09:56:23;98825.38;;;13.00;46.19
27729;BME280;15126;42.186;24.340;2023-04-06T09:58:56;98850.97;;;13.11;45.25
27729;BME280;15126;42.186;24.340;2023-04-06T10:01:28;98832.44;;;13.14;46.20
27729;BME280;15126;42.186;24.340;2023-04-06T10:04:08;98840.13;;;13.23;49.03
27729;BME280;15126;42.186;24.340;2023-04-06T10:06:38;98830.16;;;13.22;45.42
27729;BME280;15126;42.186;24.340;2023-04-06T10:09:07;98849.13;;;13.18;43.50
27729;BME280;15126;42.186;24.340;2023-04-06T10:11:35;98840.19;;;13.10;48.12
27729;BME280;15126;42.186;24.340;2023-04-06T10:14:04;98848.22;;;13.21;44.03
27729;BME280;15126;42.186;24.340;2023-04-06T10:16:30;98848.41;;;13.35;47.79
27729;BME280;15126;42.186;24.340;2023-04-06T10:19:05;98835.78;;;13.31;44.23
27729;BME280;15126;42.186;24.340;2023-04-06T10:21:34;98840.34;;;13.46;44.71
27729;BME280;15126;42.186;24.340;2023-04-06T10:24:08;98840.84;;;13.54;41.12
27729;BME280;15126;42.186;24.340;2023-04-06T10:26:37;98839.22;;;13.75;44.94
27729;BME280;15126;42.186;24.340;2023-04-06T10:29:05;98831.13;;;13.86;41.10
27729;BME280;15126;42.186;24.340;2023-04-06T10:31:32;98830.00;;;13.74;42.67
27729;BME280;15126;42.186;24.340;2023-04-06T10:34:00;98824.44;;;13.83;40.46
27729;BME280;15126;42.186;24.340;2023-04-06T10:36:32;98814.09;;;13.62;40.93
27729;BME280;15126;42.186;24.340;2023-04-06T10:39:01;98833.75;;;13.71;41.90
27729;BME280;15126;42.186;24.340;2023-04-06T10:41:34;98822.75;;;13.46;41.50
27729;BME280;15126;42.186;24.340;2023-04-06T10:44:02;98816.22;;;13.40;42.37
27729;BME280;15126;42.186;24.340;2023-04-06T10:46:30;98820.00;;;13.55;46.33
27729;BME280;15126;42.186;24.340;2023-04-06T10:48:57;98811.94;;;13.66;41.91
27729;BME280;15126;42.186;24.340;2023-04-06T10:51:27;98809.31;;;13.71;40.74
27729;BME280;15126;42.186;24.340;2023-04-06T10:53:55;98788.22;;;13.49;43.98
27729;BME280;15126;42.186;24.340;2023-04-06T10:56:23;98787.81;;;13.68;44.10
27729;BME280;15126;42.186;24.340;2023-04-06T10:58:55;98800.31;;;13.86;45.77
27729;BME280;15126;42.186;24.340;2023-04-06T11:01:24;98781.13;;;13.66;43.33
27729;BME280;15126;42.186;24.340;2023-04-06T11:03:53;98795.41;;;13.59;41.58
27729;BME280;15126;42.186;24.340;2023-04-06T11:06:22;98782.19;;;13.59;43.28
27729;BME280;15126;42.186;24.340;2023-04-06T11:08:49;98783.91;;;13.66;43.08
27729;BME280;15126;42.186;24.340;2023-04-06T11:11:17;98774.59;;;13.69;40.67
27729;BME280;15126;42.186;24.340;2023-04-06T11:13:48;98785.03;;;13.87;43.59
27729;BME280;15126;42.186;24.340;2023-04-06T11:16:17;98785.50;;;13.85;44.03
27729;BME280;15126;42.186;24.340;2023-04-06T11:18:55;98770.84;;;13.81;41.22
27729;BME280;15126;42.186;24.340;2023-04-06T11:21:33;98783.03;;;13.96;43.39
27729;BME280;15126;42.186;24.340;2023-04-06T11:24:08;98785.97;;;13.93;43.93
27729;BME280;15126;42.186;24.340;2023-04-06T11:26:42;98765.72;;;13.80;42.71
27729;BME280;15126;42.186;24.340;2023-04-06T11:29:11;98761.34;;;13.79;42.67
27729;BME280;15126;42.186;24.340;2023-04-06T11:31:45;98771.03;;;13.96;40.95
27729;BME280;15126;42.186;24.340;2023-04-06T11:34:12;98753.72;;;14.06;40.74
27729;BME280;15126;42.186;24.340;2023-04-06T11:36:41;98756.84;;;14.08;42.42
27729;BME280;15126;42.186;24.340;2023-04-06T11:39:08;98764.31;;;14.02;40.73
27729;BME280;15126;42.186;24.340;2023-04-06T11:41:36;98758.72;;;14.20;45.29
27729;BME280;15126;42.186;24.340;2023-04-06T11:44:03;98736.16;;;13.97;40.36
27729;BME280;15126;42.186;24.340;2023-04-06T11:46:30;98758.25;;;14.04;39.18
27729;BME280;15126;42.186;24.340;2023-04-06T11:49:00;98763.06;;;14.03;38.68
27729;BME280;15126;42.186;24.340;2023-04-06T11:51:27;98757.78;;;13.87;41.74
27729;BME280;15126;42.186;24.340;2023-04-06T11:53:54;98772.59;;;13.97;43.18
27729;BME280;15126;42.186;24.340;2023-04-06T11:56:28;98748.75;;;14.01;42.70
27729;BME280;15126;42.186;24.340;2023-04-06T11:58:57;98758.41;;;14.09;42.56
27729;BME280;15126;42.186;24.340;2023-04-06T12:01:24;98774.59;;;14.23;38.81
27729;BME280;15126;42.186;24.340;2023-04-06T12:03:52;98774.28;;;14.21;39.75
27729;BME280;15126;42.186;24.340;2023-04-06T12:06:20;98756.06;;;14.17;39.92
27729;BME280;15126;42.186;24.340;2023-04-06T12:08:47;98766.03;;;14.09;41.05
27729;BME280;15126;42.186;24.340;2023-04-06T12:11:14;98762.91;;;13.98;43.55
27729;BME280;15126;42.186;24.340;2023-04-06T12:13:41;98761.53;;;13.93;42.09
27729;BME280;15126;42.186;24.340;2023-04-06T12:16:08;98758.56;;;13.88;39.89
27729;BME280;15126;42.186;24.340;2023-04-06T12:18:35;98754.31;;;13.65;38.37
27729;BME280;15126;42.186;24.340;2023-04-06T12:21:03;98756.50;;;13.70;42.57
27729;BME280;15126;42.186;24.340;2023-04-06T12:23:32;98750.75;;;13.73;40.33
27729;BME280;15126;42.186;24.340;2023-04-06T12:25:59;98756.84;;;13.72;40.98
27729;BME280;15126;42.186;24.340;2023-04-06T12:28:27;98754.66;;;13.94;38.57
27729;BME280;15126;42.186;24.340;2023-04-06T12:30:54;98751.88;;;13.85;38.45
27729;BME280;15126;42.186;24.340;2023-04-06T12:33:21;98752.66;;;14.04;39.25
27729;BME280;15126;42.186;24.340;2023-04-06T12:35:48;98767.28;;;14.26;41.16
27729;BME280;15126;42.186;24.340;2023-04-06T12:38:15;98752.94;;;14.15;38.47
27729;BME280;15126;42.186;24.340;2023-04-06T12:40:44;98754.66;;;14.21;36.80
27729;BME280;15126;42.186;24.340;2023-04-06T12:43:11;98749.03;;;14.21;41.62
27729;BME280;15126;42.186;24.340;2023-04-06T12:45:38;98741.59;;;14.18;42.84
27729;BME280;15126;42.186;24.340;2023-04-06T12:48:06;98740.63;;;14.21;39.39
27729;BME280;15126;42.186;24.340;2023-04-06T12:50:33;98738.16;;;14.05;39.09
27729;BME280;15126;42.186;24.340;2023-04-06T12:53:00;98738.59;;;14.22;39.44
27729;BME280;15126;42.186;24.340;2023-04-06T12:55:29;98750.31;;;14.20;39.78
27729;BME280;15126;42.186;24.340;2023-04-06T12:57:58;98749.38;;;14.14;39.30